createdAt,value
2023-01-25T00:02:14.210Z,83.79
2023-01-25T00:04:42.318Z,83.73
2023-01-25T00:07:10.867Z,83.98
2023-01-25T00:09:38.765Z,84.44
2023-01-25T00:12:06.809Z,84.22
2023-01-25T00:14:34.983Z,84.10
2023-01-25T00:17:02.831Z,83.94
2023-01-25T00:19:31.104Z,84.06
2023-01-25T00:21:59.069Z,84.14
2023-01-25T00:24:27.030Z,84.45
2023-01-25T00:26:55.112Z,84.32
2023-01-25T00:29:23.131Z,83.97
2023-01-25T00:31:58.726Z,84.04
2023-01-25T00:34:26.707Z,84.21
2023-01-25T00:37:22.924Z,84.05
2023-01-25T00:39:51.945Z,83.61
2023-01-25T00:42:20.879Z,83.89
2023-01-25T00:44:49.346Z,83.93
2023-01-25T00:47:18.037Z,84.02
2023-01-25T00:49:47.253Z,84.17
2023-01-25T00:52:15.237Z,84.14
2023-01-25T00:54:43.127Z,84.25
2023-01-25T00:57:11.212Z,84.32
2023-01-25T00:59:39.048Z,84.37
2023-01-25T01:02:07.116Z,83.82
2023-01-25T01:04:35.243Z,83.45
2023-01-25T01:07:03.439Z,83.52
2023-01-25T01:09:32.645Z,83.70
2023-01-25T01:12:00.629Z,83.41
2023-01-25T01:14:28.624Z,83.47
2023-01-25T01:16:58.064Z,83.42
2023-01-25T01:19:26.228Z,83.40
2023-01-25T01:21:54.077Z,83.74
2023-01-25T01:24:23.489Z,83.56
2023-01-25T01:26:51.441Z,83.67
2023-01-25T01:29:19.273Z,83.59
2023-01-25T01:31:52.357Z,83.55
2023-01-25T01:34:23.294Z,83.71
2023-01-25T01:36:51.472Z,83.60
2023-01-25T01:39:19.649Z,83.70
2023-01-25T01:41:47.625Z,83.77
2023-01-25T01:44:20.670Z,83.70
2023-01-25T01:46:59.638Z,83.73
2023-01-25T01:49:33.273Z,83.79
2023-01-25T01:52:16.391Z,83.69
2023-01-25T01:54:56.386Z,83.70
2023-01-25T01:57:48.809Z,83.78
2023-01-25T02:00:19.535Z,83.90
2023-01-25T02:02:51.285Z,83.70
2023-01-25T02:05:38.386Z,83.48
2023-01-25T02:08:10.953Z,83.41
2023-01-25T02:10:41.031Z,83.62
2023-01-25T02:13:09.578Z,83.49
2023-01-25T02:15:50.818Z,83.45
2023-01-25T02:18:19.568Z,83.46
2023-01-25T02:20:51.869Z,83.06
2023-01-25T02:23:48.073Z,83.10
2023-01-25T02:26:19.745Z,82.68
2023-01-25T02:29:04.270Z,82.73
2023-01-25T02:31:33.055Z,82.56
2023-01-25T02:34:01.610Z,82.66
2023-01-25T02:36:35.128Z,82.91
2023-01-25T02:39:10.126Z,82.86
2023-01-25T02:41:41.863Z,83.04
2023-01-25T02:44:20.275Z,83.17
2023-01-25T02:46:48.643Z,82.98
2023-01-25T02:49:17.825Z,83.05
2023-01-25T02:51:50.265Z,83.23
2023-01-25T02:54:20.833Z,83.19
2023-01-25T02:56:48.852Z,83.52
2023-01-25T02:59:18.944Z,83.64
2023-01-25T03:01:50.813Z,83.67
2023-01-25T03:04:18.613Z,83.86
2023-01-25T03:06:46.803Z,83.83
2023-01-25T03:09:14.639Z,83.81
2023-01-25T03:11:45.784Z,83.93
2023-01-25T03:14:13.790Z,83.75
2023-01-25T03:16:41.701Z,83.56
2023-01-25T03:19:11.203Z,83.70
2023-01-25T03:21:41.164Z,83.99
2023-01-25T03:24:11.227Z,84.20
2023-01-25T03:27:02.021Z,84.19
2023-01-25T03:29:38.550Z,84.36
2023-01-25T03:32:11.186Z,84.50
2023-01-25T03:34:39.374Z,84.59
2023-01-25T03:37:07.553Z,84.47
2023-01-25T03:39:35.967Z,84.30
2023-01-25T03:42:04.904Z,84.43
2023-01-25T03:44:33.076Z,84.49
2023-01-25T03:47:01.328Z,84.66
2023-01-25T03:49:29.402Z,84.69
2023-01-25T03:51:58.059Z,84.52
2023-01-25T03:54:33.336Z,84.44
2023-01-25T03:57:01.198Z,84.58
2023-01-25T03:59:29.993Z,85.13
2023-01-25T04:01:57.938Z,85.69
2023-01-25T04:04:25.815Z,85.93
2023-01-25T04:06:54.100Z,86.21
2023-01-25T04:09:23.373Z,86.35
2023-01-25T04:11:52.970Z,86.78
2023-01-25T04:14:35.106Z,86.91
2023-01-25T04:17:10.976Z,86.94
2023-01-25T04:20:01.812Z,87.24
2023-01-25T04:22:35.662Z,87.16
2023-01-25T04:25:04.193Z,86.89
2023-01-25T04:27:32.717Z,86.74
2023-01-25T04:30:08.703Z,86.66
2023-01-25T04:32:38.274Z,86.58
2023-01-25T04:35:14.040Z,86.38
2023-01-25T04:37:42.010Z,86.21
2023-01-25T04:40:10.908Z,86.26
2023-01-25T04:42:42.775Z,86.56
2023-01-25T04:45:12.015Z,86.81
2023-01-25T04:47:40.448Z,87.24
2023-01-25T04:50:09.820Z,87.36
2023-01-25T04:52:39.126Z,87.59
2023-01-25T04:55:08.730Z,87.73
2023-01-25T04:57:40.897Z,87.50
2023-01-25T05:00:10.391Z,87.38
2023-01-25T05:02:39.729Z,87.38
2023-01-25T05:05:10.253Z,87.44
2023-01-25T05:07:38.769Z,87.43
2023-01-25T05:10:08.526Z,87.60
2023-01-25T05:12:39.838Z,87.74
2023-01-25T05:15:09.391Z,87.60
2023-01-25T05:17:38.346Z,87.64
2023-01-25T05:20:07.212Z,87.82
2023-01-25T05:22:35.212Z,87.88
2023-01-25T05:25:04.222Z,87.94
2023-01-25T05:27:36.173Z,87.90
2023-01-25T05:30:23.112Z,87.80
2023-01-25T05:32:57.976Z,87.81
2023-01-25T05:35:25.841Z,87.95
2023-01-25T05:37:59.364Z,88.03
2023-01-25T05:40:27.661Z,88.18
2023-01-25T05:42:59.899Z,88.22
2023-01-25T05:45:30.097Z,88.40
2023-01-25T05:47:59.536Z,88.41
2023-01-25T05:50:27.864Z,88.50
2023-01-25T05:53:01.103Z,88.49
2023-01-25T05:55:29.658Z,88.60
2023-01-25T05:57:59.276Z,88.60
2023-01-25T06:00:27.451Z,88.55
2023-01-25T06:03:01.534Z,88.57
2023-01-25T06:05:31.094Z,88.69
2023-01-25T06:07:59.663Z,88.60
2023-01-25T06:10:33.521Z,88.61
2023-01-25T06:13:01.393Z,88.62
2023-01-25T06:15:29.194Z,88.53
2023-01-25T06:18:07.616Z,88.44
2023-01-25T06:21:08.122Z,88.60
2023-01-25T06:23:39.138Z,88.60
2023-01-25T06:26:12.233Z,88.65
2023-01-25T06:28:41.064Z,88.97
2023-01-25T06:31:14.615Z,88.87
2023-01-25T06:33:44.328Z,88.88
2023-01-25T06:36:16.342Z,89.17
2023-01-25T06:38:49.643Z,89.52
2023-01-25T06:41:19.499Z,89.68
2023-01-25T06:43:51.218Z,89.66
2023-01-25T06:46:19.625Z,89.33
2023-01-25T06:48:47.874Z,89.34
2023-01-25T06:51:17.000Z,89.30
2023-01-25T06:53:47.289Z,89.23
2023-01-25T06:56:22.182Z,89.08
2023-01-25T06:58:50.794Z,89.20
2023-01-25T07:01:27.529Z,89.17
2023-01-25T07:03:58.822Z,89.10
2023-01-25T07:06:34.152Z,89.09
2023-01-25T07:09:08.942Z,88.99
2023-01-25T07:11:37.319Z,88.98
2023-01-25T07:14:06.056Z,88.66
2023-01-25T07:16:37.268Z,88.59
2023-01-25T07:19:13.344Z,88.65
2023-01-25T07:21:41.498Z,88.51
2023-01-25T07:24:15.525Z,88.35
2023-01-25T07:26:44.456Z,88.31
2023-01-25T07:29:16.146Z,88.32
2023-01-25T07:31:44.421Z,88.29
2023-01-25T07:34:13.473Z,88.22
2023-01-25T07:36:43.712Z,88.08
2023-01-25T07:39:11.958Z,88.19
2023-01-25T07:41:40.786Z,88.12
2023-01-25T07:44:13.453Z,88.13
2023-01-25T07:46:47.682Z,88.16
2023-01-25T07:49:15.967Z,88.19
2023-01-25T07:51:44.173Z,88.19
2023-01-25T07:54:12.431Z,88.23
2023-01-25T07:56:40.842Z,88.11
2023-01-25T07:59:10.848Z,88.17
2023-01-25T08:01:40.417Z,88.15
2023-01-25T08:04:09.172Z,88.41
2023-01-25T08:06:39.260Z,88.01
2023-01-25T08:09:21.328Z,87.90
2023-01-25T08:11:49.450Z,87.75
2023-01-25T08:14:17.830Z,87.92
2023-01-25T08:16:50.501Z,87.81
2023-01-25T08:19:20.385Z,87.85
2023-01-25T08:21:48.189Z,87.84
2023-01-25T08:24:17.312Z,87.92
2023-01-25T08:26:45.181Z,87.97
2023-01-25T08:29:13.104Z,87.84
2023-01-25T08:31:44.124Z,87.62
2023-01-25T08:34:12.500Z,87.59
2023-01-25T08:36:40.321Z,87.68
2023-01-25T08:39:12.158Z,87.73
2023-01-25T08:41:40.185Z,87.85
2023-01-25T08:44:08.029Z,87.78
2023-01-25T08:46:36.167Z,87.77
2023-01-25T08:49:04.717Z,87.74
2023-01-25T08:51:33.445Z,87.72
2023-01-25T08:54:07.038Z,87.73
2023-01-25T08:56:38.353Z,87.59
2023-01-25T08:59:07.973Z,87.56
2023-01-25T09:01:36.354Z,87.66
2023-01-25T09:04:04.494Z,87.66
2023-01-25T09:06:33.209Z,87.74
2023-01-25T09:09:01.243Z,87.37
2023-01-25T09:11:29.209Z,87.38
2023-01-25T09:13:57.187Z,87.28
2023-01-25T09:16:29.453Z,87.17
2023-01-25T09:19:04.090Z,87.36
2023-01-25T09:21:33.976Z,87.43
2023-01-25T09:24:06.749Z,87.57
2023-01-25T09:26:39.852Z,87.17
2023-01-25T09:29:09.469Z,87.17
2023-01-25T09:31:48.075Z,87.22
2023-01-25T09:34:28.389Z,87.29
2023-01-25T09:36:56.418Z,87.40
2023-01-25T09:39:24.191Z,87.40
2023-01-25T09:42:37.989Z,87.38
2023-01-25T09:45:35.145Z,87.18
2023-01-25T09:48:21.254Z,87.21
2023-01-25T09:51:07.673Z,87.22
2023-01-25T09:53:43.707Z,87.09
2023-01-25T09:56:26.142Z,87.20
2023-01-25T09:59:18.218Z,87.22
2023-01-25T10:02:09.666Z,87.04
2023-01-25T10:04:44.190Z,87.00
2023-01-25T10:07:22.274Z,87.10
2023-01-25T10:10:06.193Z,86.99
2023-01-25T10:12:38.269Z,86.78
2023-01-25T10:15:22.757Z,86.71
2023-01-25T10:18:06.730Z,86.69
2023-01-25T10:20:58.334Z,86.70
2023-01-25T10:24:16.186Z,86.82
2023-01-25T10:26:56.799Z,86.59
2023-01-25T10:29:33.581Z,86.46
2023-01-25T10:32:31.978Z,86.38
2023-01-25T10:35:34.882Z,86.37
2023-01-25T10:38:45.362Z,86.22
2023-01-25T10:41:38.237Z,86.15
2023-01-25T10:44:24.792Z,86.22
2023-01-25T10:47:07.443Z,86.42
2023-01-25T10:49:59.016Z,86.35
2023-01-25T10:52:31.459Z,86.33
2023-01-25T10:55:14.984Z,86.03
2023-01-25T10:57:50.217Z,86.36
2023-01-25T11:00:36.111Z,86.31
2023-01-25T11:03:05.167Z,86.33
2023-01-25T11:24:19.091Z,86.31
2023-01-25T11:26:47.458Z,86.51
2023-01-25T11:29:20.940Z,86.50
2023-01-25T11:31:55.538Z,86.53
2023-01-25T11:34:29.620Z,86.67
2023-01-25T11:37:31.178Z,86.74
2023-01-25T11:40:08.013Z,86.74
2023-01-25T11:43:13.285Z,86.56
2023-01-25T11:46:10.091Z,86.59
2023-01-25T11:49:44.312Z,86.44
2023-01-25T11:53:15.226Z,86.47
2023-01-25T11:56:06.551Z,86.60
2023-01-25T11:58:55.440Z,86.56
2023-01-25T12:02:01.910Z,86.57
2023-01-25T12:04:59.775Z,86.44
2023-01-25T12:07:54.773Z,86.29
2023-01-25T12:10:44.500Z,86.41
2023-01-25T12:13:58.714Z,86.73
2023-01-25T12:16:26.826Z,86.80
2023-01-25T12:18:57.704Z,86.99
2023-01-25T12:22:02.682Z,86.90
2023-01-25T12:24:46.148Z,86.86
2023-01-25T12:27:29.221Z,86.64
2023-01-25T12:30:02.513Z,86.74
2023-01-25T12:32:45.500Z,87.00
2023-01-25T12:35:37.508Z,87.02
2023-01-25T12:38:50.528Z,87.13
2023-01-25T12:41:50.631Z,87.33
2023-01-25T12:44:25.698Z,87.02
2023-01-25T12:47:15.003Z,87.32
2023-01-25T12:49:53.491Z,87.31
2023-01-25T12:52:39.366Z,87.12
2023-01-25T12:55:14.403Z,86.74
2023-01-25T12:58:06.763Z,86.72
2023-01-25T13:01:00.789Z,86.65
2023-01-25T13:03:38.132Z,86.51
2023-01-25T13:06:30.604Z,86.35
2023-01-25T13:09:34.531Z,86.12
2023-01-25T13:12:05.077Z,85.96
2023-01-25T13:14:42.165Z,86.05
2023-01-25T13:17:33.234Z,86.50
2023-01-25T13:20:02.111Z,86.72
2023-01-25T13:22:44.918Z,86.78
2023-01-25T13:25:24.417Z,86.72
2023-01-25T13:27:53.057Z,86.68
2023-01-25T13:30:34.684Z,86.68
2023-01-25T13:33:06.847Z,86.46
2023-01-25T13:35:44.312Z,86.60
2023-01-25T13:38:12.200Z,86.71
2023-01-25T13:40:41.071Z,86.83
2023-01-25T13:43:11.568Z,86.95
2023-01-25T13:45:42.020Z,86.91
2023-01-25T13:48:25.095Z,86.93
2023-01-25T13:51:03.298Z,86.95
2023-01-25T13:53:35.291Z,86.89
2023-01-25T13:56:03.673Z,87.00
2023-01-25T13:58:47.917Z,86.94
2023-01-25T14:01:19.886Z,86.83
2023-01-25T14:03:56.274Z,86.89
2023-01-25T14:06:32.156Z,86.88
2023-01-25T14:09:07.681Z,86.94
2023-01-25T14:11:45.504Z,86.88
2023-01-25T14:14:35.012Z,86.93
2023-01-25T14:17:09.282Z,87.14
2023-01-25T14:19:48.858Z,87.28
2023-01-25T14:22:30.663Z,87.28
2023-01-25T14:25:07.271Z,87.34
2023-01-25T14:27:43.097Z,87.49
2023-01-25T14:30:25.753Z,87.54
2023-01-25T14:33:00.857Z,87.52
2023-01-25T14:35:54.259Z,87.40
2023-01-25T14:38:37.281Z,87.41
2023-01-25T14:41:17.464Z,87.34
2023-01-25T14:44:11.607Z,87.35
2023-01-25T14:46:40.994Z,87.17
2023-01-25T14:49:14.373Z,87.16
2023-01-25T14:51:57.125Z,87.34
2023-01-25T14:54:51.306Z,87.49
2023-01-25T14:57:41.202Z,87.12
2023-01-25T15:00:31.672Z,87.30
2023-01-25T15:03:04.926Z,87.49
2023-01-25T15:05:37.682Z,87.62
2023-01-25T15:08:08.715Z,87.76
2023-01-25T15:10:50.787Z,87.70
2023-01-25T15:13:26.462Z,87.73
2023-01-25T15:16:03.591Z,87.99
2023-01-25T15:18:54.522Z,88.00
2023-01-25T15:21:27.879Z,88.00
2023-01-25T15:23:59.156Z,88.15
2023-01-25T15:26:29.984Z,88.20
2023-01-25T15:29:17.038Z,88.29
2023-01-25T15:31:44.983Z,88.37
2023-01-25T15:34:33.363Z,88.20
2023-01-25T15:37:01.134Z,88.27
2023-01-25T15:39:29.930Z,88.33
2023-01-25T15:41:57.889Z,88.60
2023-01-25T15:44:25.737Z,88.46
2023-01-25T15:46:53.801Z,88.22
2023-01-25T15:49:27.537Z,88.08
2023-01-25T15:51:56.544Z,87.76
2023-01-25T15:54:24.667Z,87.93
2023-01-25T15:56:57.135Z,88.02
2023-01-25T15:59:25.301Z,88.12
2023-01-25T16:01:53.230Z,88.05
2023-01-25T16:04:21.331Z,88.14
2023-01-25T16:06:51.887Z,88.07
2023-01-25T16:09:30.917Z,87.94
2023-01-25T16:12:02.034Z,88.00
2023-01-25T16:14:31.529Z,87.96
2023-01-25T16:17:04.068Z,88.16
2023-01-25T16:19:32.975Z,88.31
2023-01-25T16:22:00.877Z,88.30
2023-01-25T16:24:28.717Z,88.23
2023-01-25T16:26:59.080Z,88.43
2023-01-25T16:29:27.775Z,88.51
2023-01-25T16:31:56.257Z,88.14
2023-01-25T16:34:24.207Z,88.20
2023-01-25T16:36:52.896Z,88.12
2023-01-25T16:39:24.175Z,88.09
2023-01-25T16:41:51.977Z,88.03
2023-01-25T16:44:20.246Z,87.98
2023-01-25T16:46:50.100Z,88.17
2023-01-25T16:49:30.541Z,88.06
2023-01-25T16:51:59.637Z,88.07
2023-01-25T16:54:27.853Z,87.87
2023-01-25T16:56:55.764Z,87.97
2023-01-25T16:59:25.061Z,88.13
2023-01-25T17:01:52.834Z,88.29
2023-01-25T17:04:20.998Z,88.45
2023-01-25T17:06:50.890Z,88.53
2023-01-25T17:09:25.532Z,88.73
2023-01-25T17:11:54.782Z,88.65
2023-01-25T17:14:23.233Z,88.69
2023-01-25T17:16:53.718Z,88.77
2023-01-25T17:19:22.008Z,88.88
2023-01-25T17:21:50.053Z,88.90
2023-01-25T17:24:21.427Z,88.91
2023-01-25T17:26:50.787Z,88.95
2023-01-25T17:29:18.797Z,88.94
2023-01-25T17:31:46.689Z,88.87
2023-01-25T17:34:21.946Z,88.95
2023-01-25T17:36:51.720Z,88.90
2023-01-25T17:39:20.899Z,88.85
2023-01-25T17:41:51.068Z,88.72
2023-01-25T17:44:24.523Z,88.64
2023-01-25T17:46:52.502Z,88.46
2023-01-25T17:49:22.509Z,88.39
2023-01-25T17:51:50.545Z,88.35
2023-01-25T17:54:18.586Z,88.45
2023-01-25T17:56:46.682Z,88.49
2023-01-25T17:59:14.921Z,88.60
2023-01-25T18:01:43.135Z,88.53
2023-01-25T18:04:13.374Z,88.37
2023-01-25T18:06:41.446Z,88.36
2023-01-25T18:09:09.550Z,88.48
2023-01-25T18:11:40.847Z,88.30
2023-01-25T18:14:15.289Z,88.11
2023-01-25T18:16:43.602Z,88.13
2023-01-25T18:19:12.030Z,88.28
2023-01-25T18:21:42.406Z,88.37
2023-01-25T18:24:32.185Z,88.37
2023-01-25T18:27:08.119Z,88.56
2023-01-25T18:29:44.617Z,88.54
2023-01-25T18:32:13.972Z,88.48
2023-01-25T18:34:42.595Z,88.60
2023-01-25T18:37:21.024Z,88.57
2023-01-25T18:39:52.426Z,88.54
2023-01-25T18:42:23.727Z,88.73
2023-01-25T18:44:51.720Z,88.86
2023-01-25T18:47:22.670Z,89.01
2023-01-25T18:49:52.835Z,89.03
2023-01-25T18:52:23.203Z,88.71
2023-01-25T18:54:51.696Z,88.88
2023-01-25T18:57:20.172Z,89.25
2023-01-25T18:59:48.065Z,89.24
2023-01-25T19:02:17.502Z,89.77
2023-01-25T19:04:45.724Z,90.54
2023-01-25T19:07:14.017Z,90.70
2023-01-25T19:09:44.922Z,91.38
2023-01-25T19:12:13.072Z,91.89
2023-01-25T19:14:40.944Z,92.75
2023-01-25T19:17:08.900Z,92.89
2023-01-25T19:19:36.878Z,92.75
2023-01-25T19:22:04.967Z,92.80
2023-01-25T19:24:32.831Z,92.30
2023-01-25T19:27:00.662Z,92.14
2023-01-25T19:29:28.571Z,92.13
2023-01-25T19:31:56.475Z,91.94
2023-01-25T19:34:24.904Z,91.68
2023-01-25T19:36:53.938Z,91.70
2023-01-25T19:39:21.836Z,91.80
2023-01-25T19:41:53.244Z,92.03
2023-01-25T19:44:23.595Z,91.51
2023-01-25T19:46:52.878Z,91.41
2023-01-25T19:49:22.396Z,91.50
2023-01-25T19:51:53.226Z,91.64
2023-01-25T19:54:23.085Z,91.32
2023-01-25T19:56:51.472Z,91.20
2023-01-25T19:59:23.906Z,91.10
2023-01-25T20:01:52.324Z,91.02
2023-01-25T20:04:23.366Z,91.01
2023-01-25T20:06:52.564Z,91.17
2023-01-25T20:09:24.806Z,91.36
2023-01-25T20:11:56.171Z,91.33
2023-01-25T20:14:24.883Z,91.24
2023-01-25T20:16:52.835Z,91.11
2023-01-25T20:19:20.793Z,91.33
2023-01-25T20:21:48.695Z,91.20
2023-01-25T20:24:16.623Z,90.89
2023-01-25T20:26:45.733Z,91.09
2023-01-25T20:29:13.690Z,91.13
2023-01-25T20:31:45.474Z,91.02
2023-01-25T20:34:21.143Z,90.67
2023-01-25T20:36:50.963Z,90.77
2023-01-25T20:39:22.172Z,90.81
2023-01-25T20:41:53.466Z,90.58
2023-01-25T20:44:21.549Z,90.61
2023-01-25T20:46:52.099Z,90.64
2023-01-25T20:49:20.469Z,90.53
2023-01-25T20:51:48.489Z,90.49
2023-01-25T20:54:18.164Z,90.51
2023-01-25T20:56:48.110Z,90.45
2023-01-25T20:59:17.749Z,90.48
2023-01-25T21:01:46.706Z,90.51
2023-01-25T21:04:14.707Z,90.19
2023-01-25T21:06:42.905Z,90.20
2023-01-25T21:09:13.476Z,90.13
2023-01-25T21:11:41.983Z,90.29
2023-01-25T21:14:10.035Z,90.22
2023-01-25T21:16:38.235Z,90.11
2023-01-25T21:19:07.173Z,89.93
2023-01-25T21:21:35.903Z,89.95
2023-01-25T21:24:05.905Z,89.97
2023-01-25T21:26:37.102Z,90.03
2023-01-25T21:29:06.926Z,89.95
2023-01-25T21:31:38.776Z,90.14
2023-01-25T21:34:10.123Z,90.22
2023-01-25T21:36:38.130Z,89.93
2023-01-25T21:39:06.521Z,89.99
2023-01-25T21:41:34.579Z,89.94
2023-01-25T21:44:21.985Z,90.13
2023-01-25T21:47:16.342Z,90.24
2023-01-25T21:49:56.431Z,90.29
2023-01-25T21:52:24.276Z,90.01
2023-01-25T21:54:52.079Z,89.93
2023-01-25T21:57:20.602Z,90.11
2023-01-25T21:59:48.897Z,89.93
2023-01-25T22:02:16.890Z,89.90
2023-01-25T22:04:44.759Z,89.74
2023-01-25T22:07:12.706Z,89.58
2023-01-25T22:09:41.048Z,89.64
2023-01-25T22:12:09.315Z,89.72
2023-01-25T22:14:37.243Z,89.62
2023-01-25T22:17:05.203Z,89.43
2023-01-25T22:19:33.389Z,89.29
2023-01-25T22:22:01.384Z,89.05
2023-01-25T22:24:29.405Z,88.94
2023-01-25T22:27:03.284Z,88.63
2023-01-25T22:29:33.527Z,88.43
2023-01-25T22:32:02.336Z,88.28
2023-01-25T22:34:30.346Z,88.15
2023-01-25T22:36:58.296Z,88.09
2023-01-25T22:39:26.219Z,88.06
2023-01-25T22:41:54.210Z,88.21
2023-01-25T22:44:22.132Z,88.05
2023-01-25T22:46:50.661Z,88.09
2023-01-25T22:49:18.929Z,88.15
2023-01-25T22:51:46.732Z,88.00
2023-01-25T22:54:14.626Z,87.93
2023-01-25T22:56:42.807Z,87.92
2023-01-25T22:59:18.562Z,87.81
2023-01-25T23:01:46.486Z,87.70
2023-01-25T23:04:14.484Z,87.66
2023-01-25T23:06:42.430Z,87.68
2023-01-25T23:09:10.559Z,87.65
2023-01-25T23:11:38.943Z,87.44
2023-01-25T23:14:30.625Z,87.36
2023-01-25T23:17:17.121Z,87.32
2023-01-25T23:19:45.318Z,87.35
2023-01-25T23:22:13.376Z,87.37
2023-01-25T23:24:41.318Z,87.35
2023-01-25T23:27:09.255Z,87.34
2023-01-25T23:29:37.273Z,87.48
2023-01-25T23:32:05.467Z,87.58
2023-01-25T23:34:37.078Z,87.75
2023-01-25T23:37:05.049Z,87.79
2023-01-25T23:39:33.508Z,87.95
2023-01-25T23:42:01.375Z,87.98
2023-01-25T23:44:29.283Z,88.02
2023-01-25T23:46:57.241Z,88.03
2023-01-25T23:49:25.112Z,88.06
2023-01-25T23:51:53.020Z,88.11
2023-01-25T23:54:20.916Z,88.11
2023-01-25T23:56:48.800Z,88.19
2023-01-25T23:59:16.855Z,88.28
